sensor_id;sensor_type;location;lat;lon;timestamp;P1;durP1;ratioP1;P2;durP2;ratioP2
23617;SDS011;18207;32.078;34.818;2023-02-22T00:01:27;2.20;;;2.00;;
23617;SDS011;18207;32.078;34.818;2023-02-22T00:04:19;2.10;;;1.90;;
23617;SDS011;18207;32.078;34.818;2023-02-22T00:06:50;1.90;;;1.80;;
23617;SDS011;18207;32.078;34.818;2023-02-22T00:09:29;2.22;;;2.00;;
23617;SDS011;18207;32.078;34.818;2023-02-22T00:12:00;1.90;;;1.80;;
23617;SDS011;18207;32.078;34.818;2023-02-22T00:14:30;1.83;;;1.70;;
23617;SDS011;18207;32.078;34.818;2023-02-22T00:17:00;1.80;;;1.70;;
23617;SDS011;18207;32.078;34.818;2023-02-22T00:19:31;1.83;;;1.73;;
23617;SDS011;18207;32.078;34.818;2023-02-22T00:22:01;1.85;;;1.75;;
23617;SDS011;18207;32.078;34.818;2023-02-22T00:24:34;1.90;;;1.80;;
23617;SDS011;18207;32.078;34.818;2023-02-22T00:27:04;1.83;;;1.73;;
23617;SDS011;18207;32.078;34.818;2023-02-22T00:29:36;1.83;;;1.73;;
23617;SDS011;18207;32.078;34.818;2023-02-22T00:32:06;1.92;;;1.73;;
23617;SDS011;18207;32.078;34.818;2023-02-22T00:34:37;1.95;;;1.75;;
23617;SDS011;18207;32.078;34.818;2023-02-22T00:37:09;2.00;;;1.90;;
23617;SDS011;18207;32.078;34.818;2023-02-22T00:39:43;1.83;;;1.73;;
23617;SDS011;18207;32.078;34.818;2023-02-22T00:42:16;2.97;;;2.00;;
23617;SDS011;18207;32.078;34.818;2023-02-22T00:44:48;2.10;;;1.90;;
23617;SDS011;18207;32.078;34.818;2023-02-22T00:47:18;1.85;;;1.75;;
23617;SDS011;18207;32.078;34.818;2023-02-22T00:49:49;1.90;;;1.80;;
23617;SDS011;18207;32.078;34.818;2023-02-22T00:52:19;2.03;;;1.92;;
23617;SDS011;18207;32.078;34.818;2023-02-22T00:54:52;2.13;;;1.70;;
23617;SDS011;18207;32.078;34.818;2023-02-22T00:57:23;1.83;;;1.65;;
23617;SDS011;18207;32.078;34.818;2023-02-22T00:59:53;1.98;;;1.88;;
23617;SDS011;18207;32.078;34.818;2023-02-22T01:02:24;2.03;;;1.83;;
23617;SDS011;18207;32.078;34.818;2023-02-22T01:04:55;2.22;;;2.03;;
23617;SDS011;18207;32.078;34.818;2023-02-22T01:07:26;1.83;;;1.73;;
23617;SDS011;18207;32.078;34.818;2023-02-22T01:09:58;2.00;;;1.90;;
23617;SDS011;18207;32.078;34.818;2023-02-22T01:12:28;2.38;;;2.17;;
23617;SDS011;18207;32.078;34.818;2023-02-22T01:14:59;1.88;;;1.77;;
23617;SDS011;18207;32.078;34.818;2023-02-22T01:17:30;2.08;;;1.92;;
23617;SDS011;18207;32.078;34.818;2023-02-22T01:20:01;1.73;;;1.63;;
23617;SDS011;18207;32.078;34.818;2023-02-22T01:22:38;1.98;;;1.77;;
23617;SDS011;18207;32.078;34.818;2023-02-22T01:25:11;1.80;;;1.70;;
23617;SDS011;18207;32.078;34.818;2023-02-22T01:27:47;1.80;;;1.70;;
23617;SDS011;18207;32.078;34.818;2023-02-22T01:30:20;1.80;;;1.70;;
23617;SDS011;18207;32.078;34.818;2023-02-22T01:32:54;2.22;;;1.65;;
23617;SDS011;18207;32.078;34.818;2023-02-22T01:35:26;2.63;;;1.80;;
23617;SDS011;18207;32.078;34.818;2023-02-22T01:37:59;2.08;;;1.88;;
23617;SDS011;18207;32.078;34.818;2023-02-22T01:40:32;1.73;;;1.63;;
23617;SDS011;18207;32.078;34.818;2023-02-22T01:43:14;1.88;;;1.77;;
23617;SDS011;18207;32.078;34.818;2023-02-22T01:45:54;1.80;;;1.70;;
23617;SDS011;18207;32.078;34.818;2023-02-22T01:48:31;2.17;;;1.92;;
23617;SDS011;18207;32.078;34.818;2023-02-22T01:51:11;1.80;;;1.70;;
23617;SDS011;18207;32.078;34.818;2023-02-22T01:53:47;2.13;;;1.98;;
23617;SDS011;18207;32.078;34.818;2023-02-22T01:56:24;2.20;;;2.00;;
23617;SDS011;18207;32.078;34.818;2023-02-22T01:58:59;1.77;;;1.67;;
23617;SDS011;18207;32.078;34.818;2023-02-22T02:01:35;1.90;;;1.80;;
23617;SDS011;18207;32.078;34.818;2023-02-22T02:04:11;1.85;;;1.75;;
23617;SDS011;18207;32.078;34.818;2023-02-22T02:06:47;1.90;;;1.80;;
23617;SDS011;18207;32.078;34.818;2023-02-22T02:09:20;3.08;;;1.75;;
23617;SDS011;18207;32.078;34.818;2023-02-22T02:12:02;1.90;;;1.80;;
23617;SDS011;18207;32.078;34.818;2023-02-22T02:14:37;2.05;;;1.85;;
23617;SDS011;18207;32.078;34.818;2023-02-22T02:17:10;2.13;;;1.98;;
23617;SDS011;18207;32.078;34.818;2023-02-22T02:19:49;1.73;;;1.63;;
23617;SDS011;18207;32.078;34.818;2023-02-22T02:22:40;1.98;;;1.63;;
23617;SDS011;18207;32.078;34.818;2023-02-22T02:35:05;1.65;;;1.55;;
23617;SDS011;18207;32.078;34.818;2023-02-22T02:37:49;1.52;;;1.42;;
23617;SDS011;18207;32.078;34.818;2023-02-22T02:40:31;1.85;;;1.75;;
23617;SDS011;18207;32.078;34.818;2023-02-22T02:43:11;2.05;;;1.90;;
23617;SDS011;18207;32.078;34.818;2023-02-22T02:45:53;2.00;;;1.85;;
23617;SDS011;18207;32.078;34.818;2023-02-22T02:48:34;1.75;;;1.65;;
23617;SDS011;18207;32.078;34.818;2023-02-22T02:51:11;1.67;;;1.58;;
23617;SDS011;18207;32.078;34.818;2023-02-22T02:53:45;1.83;;;1.70;;
23617;SDS011;18207;32.078;34.818;2023-02-22T02:56:19;1.92;;;1.83;;
23617;SDS011;18207;32.078;34.818;2023-02-22T02:58:50;1.83;;;1.73;;
23617;SDS011;18207;32.078;34.818;2023-02-22T03:01:31;2.05;;;1.85;;
23617;SDS011;18207;32.078;34.818;2023-02-22T03:04:24;2.05;;;1.85;;
23617;SDS011;18207;32.078;34.818;2023-02-22T03:07:09;2.10;;;1.90;;
23617;SDS011;18207;32.078;34.818;2023-02-22T03:10:01;1.90;;;1.80;;
23617;SDS011;18207;32.078;34.818;2023-02-22T03:13:02;1.67;;;1.58;;
23617;SDS011;18207;32.078;34.818;2023-02-22T03:15:43;2.17;;;1.73;;
23617;SDS011;18207;32.078;34.818;2023-02-22T03:18:31;1.80;;;1.70;;
23617;SDS011;18207;32.078;34.818;2023-02-22T03:21:22;1.70;;;1.60;;
23617;SDS011;18207;32.078;34.818;2023-02-22T03:24:01;1.77;;;1.67;;
23617;SDS011;18207;32.078;34.818;2023-02-22T03:26:41;1.80;;;1.67;;
23617;SDS011;18207;32.078;34.818;2023-02-22T03:29:19;1.83;;;1.67;;
23617;SDS011;18207;32.078;34.818;2023-02-22T03:31:54;2.15;;;2.00;;
23617;SDS011;18207;32.078;34.818;2023-02-22T03:34:28;2.35;;;2.00;;
23617;SDS011;18207;32.078;34.818;2023-02-22T03:37:09;2.83;;;1.88;;
23617;SDS011;18207;32.078;34.818;2023-02-22T03:39:45;1.80;;;1.70;;
23617;SDS011;18207;32.078;34.818;2023-02-22T03:42:21;2.13;;;1.92;;
23617;SDS011;18207;32.078;34.818;2023-02-22T03:45:00;3.25;;;1.75;;
23617;SDS011;18207;32.078;34.818;2023-02-22T03:47:36;1.95;;;1.73;;
23617;SDS011;18207;32.078;34.818;2023-02-22T03:50:13;2.10;;;1.80;;
23617;SDS011;18207;32.078;34.818;2023-02-22T03:52:50;2.00;;;1.90;;
23617;SDS011;18207;32.078;34.818;2023-02-22T03:55:21;2.10;;;1.90;;
23617;SDS011;18207;32.078;34.818;2023-02-22T03:57:55;1.80;;;1.60;;
23617;SDS011;18207;32.078;34.818;2023-02-22T04:00:31;2.28;;;1.90;;
23617;SDS011;18207;32.078;34.818;2023-02-22T04:03:16;2.03;;;1.88;;
23617;SDS011;18207;32.078;34.818;2023-02-22T04:05:51;1.98;;;1.80;;
23617;SDS011;18207;32.078;34.818;2023-02-22T04:08:22;1.95;;;1.77;;
23617;SDS011;18207;32.078;34.818;2023-02-22T04:10:53;2.00;;;1.90;;
23617;SDS011;18207;32.078;34.818;2023-02-22T04:13:24;1.90;;;1.80;;
23617;SDS011;18207;32.078;34.818;2023-02-22T04:15:56;3.22;;;2.17;;
23617;SDS011;18207;32.078;34.818;2023-02-22T04:18:32;2.13;;;1.92;;
23617;SDS011;18207;32.078;34.818;2023-02-22T04:21:03;2.08;;;1.92;;
23617;SDS011;18207;32.078;34.818;2023-02-22T04:23:38;2.10;;;1.90;;
23617;SDS011;18207;32.078;34.818;2023-02-22T04:26:09;1.92;;;1.83;;
23617;SDS011;18207;32.078;34.818;2023-02-22T04:28:40;1.88;;;1.77;;
23617;SDS011;18207;32.078;34.818;2023-02-22T04:31:10;2.28;;;2.08;;
23617;SDS011;18207;32.078;34.818;2023-02-22T04:33:41;1.92;;;1.77;;
23617;SDS011;18207;32.078;34.818;2023-02-22T04:36:12;2.30;;;2.10;;
23617;SDS011;18207;32.078;34.818;2023-02-22T04:38:45;1.92;;;1.83;;
23617;SDS011;18207;32.078;34.818;2023-02-22T04:41:16;2.35;;;2.15;;
23617;SDS011;18207;32.078;34.818;2023-02-22T04:43:54;2.38;;;2.17;;
23617;SDS011;18207;32.078;34.818;2023-02-22T04:46:24;2.22;;;1.90;;
23617;SDS011;18207;32.078;34.818;2023-02-22T04:48:55;2.28;;;2.08;;
23617;SDS011;18207;32.078;34.818;2023-02-22T04:51:26;3.08;;;2.20;;
23617;SDS011;18207;32.078;34.818;2023-02-22T04:53:58;2.53;;;1.90;;
23617;SDS011;18207;32.078;34.818;2023-02-22T04:56:29;2.38;;;2.10;;
23617;SDS011;18207;32.078;34.818;2023-02-22T04:59:13;2.10;;;1.88;;
23617;SDS011;18207;32.078;34.818;2023-02-22T05:01:44;2.28;;;2.08;;
23617;SDS011;18207;32.078;34.818;2023-02-22T05:04:33;2.20;;;2.00;;
23617;SDS011;18207;32.078;34.818;2023-02-22T05:07:05;2.17;;;1.98;;
23617;SDS011;18207;32.078;34.818;2023-02-22T05:09:37;2.10;;;2.00;;
23617;SDS011;18207;32.078;34.818;2023-02-22T05:12:07;2.65;;;2.30;;
23617;SDS011;18207;32.078;34.818;2023-02-22T05:14:38;1.92;;;1.83;;
23617;SDS011;18207;32.078;34.818;2023-02-22T05:17:09;2.28;;;1.98;;
23617;SDS011;18207;32.078;34.818;2023-02-22T05:19:43;3.55;;;2.05;;
23617;SDS011;18207;32.078;34.818;2023-02-22T05:22:17;2.25;;;2.08;;
23617;SDS011;18207;32.078;34.818;2023-02-22T05:24:50;2.97;;;2.13;;
23617;SDS011;18207;32.078;34.818;2023-02-22T05:27:33;2.78;;;2.17;;
23617;SDS011;18207;32.078;34.818;2023-02-22T05:30:04;3.15;;;2.20;;
23617;SDS011;18207;32.078;34.818;2023-02-22T05:32:36;2.80;;;2.38;;
23617;SDS011;18207;32.078;34.818;2023-02-22T05:35:06;2.55;;;2.35;;
23617;SDS011;18207;32.078;34.818;2023-02-22T05:37:37;3.55;;;2.17;;
23617;SDS011;18207;32.078;34.818;2023-02-22T05:40:11;2.55;;;2.13;;
23617;SDS011;18207;32.078;34.818;2023-02-22T05:42:44;2.38;;;2.08;;
23617;SDS011;18207;32.078;34.818;2023-02-22T05:45:15;2.22;;;2.13;;
23617;SDS011;18207;32.078;34.818;2023-02-22T05:48:02;2.85;;;1.92;;
23617;SDS011;18207;32.078;34.818;2023-02-22T05:50:33;2.80;;;1.80;;
23617;SDS011;18207;32.078;34.818;2023-02-22T05:53:04;1.80;;;1.70;;
23617;SDS011;18207;32.078;34.818;2023-02-22T05:55:36;2.55;;;1.80;;
23617;SDS011;18207;32.078;34.818;2023-02-22T05:58:06;2.10;;;1.90;;
23617;SDS011;18207;32.078;34.818;2023-02-22T06:00:36;2.13;;;1.92;;
23617;SDS011;18207;32.078;34.818;2023-02-22T06:03:07;2.10;;;1.90;;
23617;SDS011;18207;32.078;34.818;2023-02-22T06:05:39;1.95;;;1.85;;
23617;SDS011;18207;32.078;34.818;2023-02-22T06:08:10;1.70;;;1.60;;
23617;SDS011;18207;32.078;34.818;2023-02-22T06:10:52;1.85;;;1.75;;
23617;SDS011;18207;32.078;34.818;2023-02-22T06:13:22;1.75;;;1.65;;
23617;SDS011;18207;32.078;34.818;2023-02-22T06:15:53;1.80;;;1.70;;
23617;SDS011;18207;32.078;34.818;2023-02-22T06:18:25;1.88;;;1.60;;
23617;SDS011;18207;32.078;34.818;2023-02-22T06:20:57;2.00;;;1.90;;
23617;SDS011;18207;32.078;34.818;2023-02-22T06:23:28;1.77;;;1.67;;
23617;SDS011;18207;32.078;34.818;2023-02-22T06:26:04;1.70;;;1.50;;
23617;SDS011;18207;32.078;34.818;2023-02-22T06:28:35;1.70;;;1.60;;
23617;SDS011;18207;32.078;34.818;2023-02-22T06:31:05;1.60;;;1.50;;
23617;SDS011;18207;32.078;34.818;2023-02-22T06:33:36;1.65;;;1.55;;
23617;SDS011;18207;32.078;34.818;2023-02-22T06:36:19;1.63;;;1.52;;
23617;SDS011;18207;32.078;34.818;2023-02-22T06:38:50;2.15;;;1.50;;
23617;SDS011;18207;32.078;34.818;2023-02-22T06:41:22;1.35;;;1.25;;
23617;SDS011;18207;32.078;34.818;2023-02-22T06:43:51;1.60;;;1.38;;
23617;SDS011;18207;32.078;34.818;2023-02-22T06:46:22;1.75;;;1.40;;
23617;SDS011;18207;32.078;34.818;2023-02-22T06:48:53;1.40;;;1.30;;
23617;SDS011;18207;32.078;34.818;2023-02-22T06:51:25;1.40;;;1.30;;
23617;SDS011;18207;32.078;34.818;2023-02-22T06:53:57;1.20;;;1.10;;
23617;SDS011;18207;32.078;34.818;2023-02-22T06:56:42;1.40;;;1.20;;
23617;SDS011;18207;32.078;34.818;2023-02-22T06:59:13;1.48;;;1.30;;
23617;SDS011;18207;32.078;34.818;2023-02-22T07:01:44;3.47;;;1.88;;
23617;SDS011;18207;32.078;34.818;2023-02-22T07:04:14;1.83;;;1.48;;
23617;SDS011;18207;32.078;34.818;2023-02-22T07:06:45;1.60;;;1.50;;
23617;SDS011;18207;32.078;34.818;2023-02-22T07:09:16;1.65;;;1.40;;
23617;SDS011;18207;32.078;34.818;2023-02-22T07:11:49;1.38;;;1.27;;
23617;SDS011;18207;32.078;34.818;2023-02-22T07:14:20;1.27;;;1.17;;
23617;SDS011;18207;32.078;34.818;2023-02-22T07:16:49;1.20;;;1.10;;
23617;SDS011;18207;32.078;34.818;2023-02-22T07:19:20;1.13;;;1.00;;
23617;SDS011;18207;32.078;34.818;2023-02-22T07:21:51;2.25;;;1.35;;
23617;SDS011;18207;32.078;34.818;2023-02-22T07:24:36;1.33;;;1.23;;
23617;SDS011;18207;32.078;34.818;2023-02-22T07:27:09;1.13;;;1.02;;
23617;SDS011;18207;32.078;34.818;2023-02-22T07:29:41;1.33;;;1.20;;
23617;SDS011;18207;32.078;34.818;2023-02-22T07:32:12;1.00;;;1.00;;
23617;SDS011;18207;32.078;34.818;2023-02-22T07:34:43;1.00;;;1.00;;
23617;SDS011;18207;32.078;34.818;2023-02-22T07:37:13;1.15;;;1.10;;
23617;SDS011;18207;32.078;34.818;2023-02-22T07:39:43;1.05;;;1.00;;
23617;SDS011;18207;32.078;34.818;2023-02-22T07:42:17;0.82;;;0.82;;
23617;SDS011;18207;32.078;34.818;2023-02-22T07:45:01;1.33;;;1.23;;
23617;SDS011;18207;32.078;34.818;2023-02-22T07:47:32;0.80;;;0.80;;
23617;SDS011;18207;32.078;34.818;2023-02-22T07:50:02;1.02;;;1.02;;
23617;SDS011;18207;32.078;34.818;2023-02-22T07:52:33;0.90;;;0.88;;
23617;SDS011;18207;32.078;34.818;2023-02-22T07:55:06;1.30;;;1.17;;
23617;SDS011;18207;32.078;34.818;2023-02-22T07:57:41;1.10;;;0.93;;
23617;SDS011;18207;32.078;34.818;2023-02-22T08:00:14;0.90;;;0.80;;
23617;SDS011;18207;32.078;34.818;2023-02-22T08:02:51;0.55;;;0.43;;
23617;SDS011;18207;32.078;34.818;2023-02-22T08:05:23;0.57;;;0.57;;
23617;SDS011;18207;32.078;34.818;2023-02-22T08:07:56;0.50;;;0.50;;
23617;SDS011;18207;32.078;34.818;2023-02-22T08:10:27;0.50;;;0.50;;
23617;SDS011;18207;32.078;34.818;2023-02-22T08:13:01;0.45;;;0.45;;
23617;SDS011;18207;32.078;34.818;2023-02-22T08:15:33;0.35;;;0.35;;
23617;SDS011;18207;32.078;34.818;2023-02-22T08:18:07;0.50;;;0.50;;
23617;SDS011;18207;32.078;34.818;2023-02-22T08:20:41;0.75;;;0.60;;
23617;SDS011;18207;32.078;34.818;2023-02-22T08:23:16;0.40;;;0.40;;
23617;SDS011;18207;32.078;34.818;2023-02-22T08:26:02;0.40;;;0.40;;
23617;SDS011;18207;32.078;34.818;2023-02-22T08:28:37;0.75;;;0.40;;
23617;SDS011;18207;32.078;34.818;2023-02-22T08:31:20;0.50;;;0.50;;
23617;SDS011;18207;32.078;34.818;2023-02-22T08:33:51;0.77;;;0.77;;
23617;SDS011;18207;32.078;34.818;2023-02-22T08:36:23;0.30;;;0.30;;
23617;SDS011;18207;32.078;34.818;2023-02-22T08:38:55;0.43;;;0.43;;
23617;SDS011;18207;32.078;34.818;2023-02-22T08:41:26;0.30;;;0.30;;
23617;SDS011;18207;32.078;34.818;2023-02-22T08:43:58;0.35;;;0.35;;
23617;SDS011;18207;32.078;34.818;2023-02-22T08:46:28;0.35;;;0.35;;
23617;SDS011;18207;32.078;34.818;2023-02-22T08:48:59;0.30;;;0.30;;
23617;SDS011;18207;32.078;34.818;2023-02-22T08:51:33;1.15;;;0.40;;
23617;SDS011;18207;32.078;34.818;2023-02-22T08:54:06;1.15;;;0.40;;
23617;SDS011;18207;32.078;34.818;2023-02-22T08:56:37;0.30;;;0.30;;
23617;SDS011;18207;32.078;34.818;2023-02-22T08:59:22;0.57;;;0.40;;
23617;SDS011;18207;32.078;34.818;2023-02-22T09:01:53;0.30;;;0.30;;
23617;SDS011;18207;32.078;34.818;2023-02-22T09:04:26;0.47;;;0.47;;
23617;SDS011;18207;32.078;34.818;2023-02-22T09:06:56;0.40;;;0.40;;
23617;SDS011;18207;32.078;34.818;2023-02-22T09:09:27;0.30;;;0.30;;
23617;SDS011;18207;32.078;34.818;2023-02-22T09:12:10;0.55;;;0.40;;
23617;SDS011;18207;32.078;34.818;2023-02-22T09:14:46;0.40;;;0.40;;
23617;SDS011;18207;32.078;34.818;2023-02-22T09:17:16;0.40;;;0.30;;
23617;SDS011;18207;32.078;34.818;2023-02-22T09:19:47;0.30;;;0.30;;
23617;SDS011;18207;32.078;34.818;2023-02-22T09:22:17;0.40;;;0.40;;
23617;SDS011;18207;32.078;34.818;2023-02-22T09:24:47;0.30;;;0.30;;
23617;SDS011;18207;32.078;34.818;2023-02-22T09:27:24;0.30;;;0.30;;
23617;SDS011;18207;32.078;34.818;2023-02-22T09:29:58;0.40;;;0.40;;
23617;SDS011;18207;32.078;34.818;2023-02-22T09:32:29;0.68;;;0.50;;
23617;SDS011;18207;32.078;34.818;2023-02-22T09:35:00;0.40;;;0.40;;
23617;SDS011;18207;32.078;34.818;2023-02-22T09:37:30;0.57;;;0.47;;
23617;SDS011;18207;32.078;34.818;2023-02-22T09:40:01;0.43;;;0.40;;
23617;SDS011;18207;32.078;34.818;2023-02-22T09:42:37;0.65;;;0.40;;
23617;SDS011;18207;32.078;34.818;2023-02-22T09:45:19;0.90;;;0.40;;
23617;SDS011;18207;32.078;34.818;2023-02-22T09:48:04;0.30;;;0.30;;
23617;SDS011;18207;32.078;34.818;2023-02-22T09:50:48;0.38;;;0.20;;
23617;SDS011;18207;32.078;34.818;2023-02-22T09:53:27;0.30;;;0.30;;
23617;SDS011;18207;32.078;34.818;2023-02-22T09:56:18;0.30;;;0.20;;
23617;SDS011;18207;32.078;34.818;2023-02-22T09:58:51;0.30;;;0.30;;
23617;SDS011;18207;32.078;34.818;2023-02-22T10:01:29;0.17;;;0.17;;
23617;SDS011;18207;32.078;34.818;2023-02-22T10:04:06;0.40;;;0.40;;
23617;SDS011;18207;32.078;34.818;2023-02-22T10:06:51;0.25;;;0.25;;
23617;SDS011;18207;32.078;34.818;2023-02-22T10:09:34;0.30;;;0.30;;
23617;SDS011;18207;32.078;34.818;2023-02-22T10:12:25;0.20;;;0.20;;
23617;SDS011;18207;32.078;34.818;2023-02-22T10:15:15;0.30;;;0.30;;
23617;SDS011;18207;32.078;34.818;2023-02-22T10:21:48;0.30;;;0.30;;
23617;SDS011;18207;32.078;34.818;2023-02-22T10:24:49;0.28;;;0.28;;
23617;SDS011;18207;32.078;34.818;2023-02-22T10:27:31;0.30;;;0.20;;
23617;SDS011;18207;32.078;34.818;2023-02-22T10:30:13;0.50;;;0.50;;
23617;SDS011;18207;32.078;34.818;2023-02-22T10:32:53;0.20;;;0.20;;
23617;SDS011;18207;32.078;34.818;2023-02-22T10:35:35;1.05;;;0.30;;
23617;SDS011;18207;32.078;34.818;2023-02-22T10:38:12;0.43;;;0.40;;
23617;SDS011;18207;32.078;34.818;2023-02-22T10:40:49;0.43;;;0.30;;
23617;SDS011;18207;32.078;34.818;2023-02-22T10:43:26;0.38;;;0.30;;
23617;SDS011;18207;32.078;34.818;2023-02-22T10:45:57;0.35;;;0.28;;
23617;SDS011;18207;32.078;34.818;2023-02-22T10:48:33;0.30;;;0.30;;
23617;SDS011;18207;32.078;34.818;2023-02-22T10:51:10;0.85;;;0.30;;
23617;SDS011;18207;32.078;34.818;2023-02-22T10:53:40;0.30;;;0.30;;
23617;SDS011;18207;32.078;34.818;2023-02-22T10:56:13;0.20;;;0.20;;
23617;SDS011;18207;32.078;34.818;2023-02-22T10:58:48;0.30;;;0.30;;
23617;SDS011;18207;32.078;34.818;2023-02-22T11:01:26;0.10;;;0.10;;
23617;SDS011;18207;32.078;34.818;2023-02-22T11:04:10;0.17;;;0.15;;
23617;SDS011;18207;32.078;34.818;2023-02-22T11:06:48;0.30;;;0.30;;
23617;SDS011;18207;32.078;34.818;2023-02-22T11:09:46;0.30;;;0.30;;
23617;SDS011;18207;32.078;34.818;2023-02-22T11:12:24;0.32;;;0.30;;
23617;SDS011;18207;32.078;34.818;2023-02-22T11:15:17;0.50;;;0.50;;
23617;SDS011;18207;32.078;34.818;2023-02-22T11:17:57;0.20;;;0.20;;
23617;SDS011;18207;32.078;34.818;2023-02-22T11:20:28;0.30;;;0.30;;
23617;SDS011;18207;32.078;34.818;2023-02-22T11:23:07;0.28;;;0.25;;
23617;SDS011;18207;32.078;34.818;2023-02-22T11:25:38;0.28;;;0.28;;
23617;SDS011;18207;32.078;34.818;2023-02-22T11:28:18;0.35;;;0.35;;
23617;SDS011;18207;32.078;34.818;2023-02-22T11:31:09;0.47;;;0.40;;
23617;SDS011;18207;32.078;34.818;2023-02-22T11:33:51;0.40;;;0.38;;
23617;SDS011;18207;32.078;34.818;2023-02-22T11:36:39;0.10;;;0.10;;
23617;SDS011;18207;32.078;34.818;2023-02-22T11:39:22;0.70;;;0.70;;
23617;SDS011;18207;32.078;34.818;2023-02-22T11:41:55;0.57;;;0.57;;
23617;SDS011;18207;32.078;34.818;2023-02-22T11:44:27;0.45;;;0.43;;
23617;SDS011;18207;32.078;34.818;2023-02-22T11:47:00;0.30;;;0.30;;
23617;SDS011;18207;32.078;34.818;2023-02-22T11:49:33;1.50;;;0.73;;
23617;SDS011;18207;32.078;34.818;2023-02-22T11:52:21;0.40;;;0.40;;
23617;SDS011;18207;32.078;34.818;2023-02-22T11:55:06;0.52;;;0.35;;
23617;SDS011;18207;32.078;34.818;2023-02-22T11:58:17;0.52;;;0.50;;
23617;SDS011;18207;32.078;34.818;2023-02-22T12:01:15;0.40;;;0.40;;
23617;SDS011;18207;32.078;34.818;2023-02-22T12:07:23;0.40;;;0.40;;
23617;SDS011;18207;32.078;34.818;2023-02-22T12:10:22;0.30;;;0.30;;
23617;SDS011;18207;32.078;34.818;2023-02-22T12:13:15;0.35;;;0.35;;
23617;SDS011;18207;32.078;34.818;2023-02-22T12:16:33;0.25;;;0.25;;
23617;SDS011;18207;32.078;34.818;2023-02-22T12:19:21;0.38;;;0.30;;
23617;SDS011;18207;32.078;34.818;2023-02-22T12:22:02;0.40;;;0.40;;
23617;SDS011;18207;32.078;34.818;2023-02-22T12:24:39;0.25;;;0.25;;
23617;SDS011;18207;32.078;34.818;2023-02-22T12:27:32;0.28;;;0.28;;
23617;SDS011;18207;32.078;34.818;2023-02-22T12:30:11;0.30;;;0.30;;
23617;SDS011;18207;32.078;34.818;2023-02-22T12:32:49;0.55;;;0.45;;
23617;SDS011;18207;32.078;34.818;2023-02-22T12:35:25;0.65;;;0.30;;
23617;SDS011;18207;32.078;34.818;2023-02-22T12:38:02;0.45;;;0.45;;
23617;SDS011;18207;32.078;34.818;2023-02-22T12:40:42;0.20;;;0.20;;
23617;SDS011;18207;32.078;34.818;2023-02-22T12:43:26;0.52;;;0.35;;
23617;SDS011;18207;32.078;34.818;2023-02-22T12:46:02;0.20;;;0.20;;
23617;SDS011;18207;32.078;34.818;2023-02-22T12:48:41;0.40;;;0.40;;
23617;SDS011;18207;32.078;34.818;2023-02-22T12:51:24;0.20;;;0.20;;
23617;SDS011;18207;32.078;34.818;2023-02-22T12:54:09;0.20;;;0.20;;
23617;SDS011;18207;32.078;34.818;2023-02-22T12:56:49;0.20;;;0.20;;
23617;SDS011;18207;32.078;34.818;2023-02-22T12:59:30;0.28;;;0.28;;
23617;SDS011;18207;32.078;34.818;2023-02-22T13:02:10;0.60;;;0.55;;
23617;SDS011;18207;32.078;34.818;2023-02-22T13:04:48;0.20;;;0.20;;
23617;SDS011;18207;32.078;34.818;2023-02-22T13:07:29;0.52;;;0.30;;
23617;SDS011;18207;32.078;34.818;2023-02-22T13:10:23;0.20;;;0.20;;
23617;SDS011;18207;32.078;34.818;2023-02-22T13:13:13;0.30;;;0.30;;
23617;SDS011;18207;32.078;34.818;2023-02-22T13:15:55;0.40;;;0.38;;
23617;SDS011;18207;32.078;34.818;2023-02-22T13:18:36;0.20;;;0.20;;
23617;SDS011;18207;32.078;34.818;2023-02-22T13:21:18;0.63;;;0.40;;
23617;SDS011;18207;32.078;34.818;2023-02-22T13:24:00;0.50;;;0.40;;
23617;SDS011;18207;32.078;34.818;2023-02-22T13:26:43;0.40;;;0.20;;
23617;SDS011;18207;32.078;34.818;2023-02-22T13:29:23;0.45;;;0.45;;
23617;SDS011;18207;32.078;34.818;2023-02-22T13:35:36;0.25;;;0.25;;
23617;SDS011;18207;32.078;34.818;2023-02-22T13:41:49;0.40;;;0.40;;
23617;SDS011;18207;32.078;34.818;2023-02-22T13:44:50;0.30;;;0.17;;
23617;SDS011;18207;32.078;34.818;2023-02-22T13:48:11;0.50;;;0.38;;
23617;SDS011;18207;32.078;34.818;2023-02-22T13:51:03;0.52;;;0.35;;
23617;SDS011;18207;32.078;34.818;2023-02-22T13:53:46;0.20;;;0.20;;
23617;SDS011;18207;32.078;34.818;2023-02-22T13:56:25;0.52;;;0.30;;
23617;SDS011;18207;32.078;34.818;2023-02-22T13:58:58;0.30;;;0.20;;
23617;SDS011;18207;32.078;34.818;2023-02-22T14:01:38;0.73;;;0.45;;
23617;SDS011;18207;32.078;34.818;2023-02-22T14:04:21;0.50;;;0.50;;
23617;SDS011;18207;32.078;34.818;2023-02-22T14:10:43;0.80;;;0.50;;
23617;SDS011;18207;32.078;34.818;2023-02-22T14:13:18;0.30;;;0.30;;
23617;SDS011;18207;32.078;34.818;2023-02-22T14:19:04;0.93;;;0.50;;
23617;SDS011;18207;32.078;34.818;2023-02-22T14:21:55;0.20;;;0.20;;
23617;SDS011;18207;32.078;34.818;2023-02-22T14:24:39;0.47;;;0.47;;
23617;SDS011;18207;32.078;34.818;2023-02-22T14:27:13;0.30;;;0.30;;
23617;SDS011;18207;32.078;34.818;2023-02-22T14:29:49;0.28;;;0.28;;
23617;SDS011;18207;32.078;34.818;2023-02-22T14:32:29;0.40;;;0.40;;
23617;SDS011;18207;32.078;34.818;2023-02-22T14:35:03;0.50;;;0.50;;
23617;SDS011;18207;32.078;34.818;2023-02-22T14:37:58;0.32;;;0.32;;
23617;SDS011;18207;32.078;34.818;2023-02-22T14:40:31;0.45;;;0.40;;
23617;SDS011;18207;32.078;34.818;2023-02-22T14:43:07;0.40;;;0.40;;
23617;SDS011;18207;32.078;34.818;2023-02-22T14:45:46;0.25;;;0.25;;
23617;SDS011;18207;32.078;34.818;2023-02-22T14:48:23;0.50;;;0.50;;
23617;SDS011;18207;32.078;34.818;2023-02-22T14:51:06;0.50;;;0.50;;
23617;SDS011;18207;32.078;34.818;2023-02-22T14:53:51;0.32;;;0.32;;
23617;SDS011;18207;32.078;34.818;2023-02-22T14:56:31;0.40;;;0.40;;
23617;SDS011;18207;32.078;34.818;2023-02-22T14:59:14;0.50;;;0.50;;
23617;SDS011;18207;32.078;34.818;2023-02-22T15:02:02;0.40;;;0.40;;
23617;SDS011;18207;32.078;34.818;2023-02-22T15:04:37;0.47;;;0.47;;
23617;SDS011;18207;32.078;34.818;2023-02-22T15:07:18;0.60;;;0.60;;
23617;SDS011;18207;32.078;34.818;2023-02-22T15:10:07;0.65;;;0.52;;
23617;SDS011;18207;32.078;34.818;2023-02-22T15:12:52;0.40;;;0.40;;
23617;SDS011;18207;32.078;34.818;2023-02-22T15:15:37;0.30;;;0.30;;
23617;SDS011;18207;32.078;34.818;2023-02-22T15:18:21;0.32;;;0.32;;
23617;SDS011;18207;32.078;34.818;2023-02-22T15:20:56;0.20;;;0.20;;
23617;SDS011;18207;32.078;34.818;2023-02-22T15:23:40;0.52;;;0.52;;
23617;SDS011;18207;32.078;34.818;2023-02-22T15:26:18;0.25;;;0.25;;
23617;SDS011;18207;32.078;34.818;2023-02-22T15:28:55;0.60;;;0.40;;
23617;SDS011;18207;32.078;34.818;2023-02-22T15:31:29;0.45;;;0.45;;
23617;SDS011;18207;32.078;34.818;2023-02-22T15:34:08;0.20;;;0.20;;
23617;SDS011;18207;32.078;34.818;2023-02-22T15:36:50;0.20;;;0.20;;
23617;SDS011;18207;32.078;34.818;2023-02-22T15:39:24;0.55;;;0.55;;
23617;SDS011;18207;32.078;34.818;2023-02-22T15:42:05;0.50;;;0.50;;
23617;SDS011;18207;32.078;34.818;2023-02-22T15:44:45;0.63;;;0.60;;
23617;SDS011;18207;32.078;34.818;2023-02-22T15:47:21;1.10;;;0.80;;
23617;SDS011;18207;32.078;34.818;2023-02-22T15:50:14;0.52;;;0.50;;
23617;SDS011;18207;32.078;34.818;2023-02-22T15:52:52;0.40;;;0.40;;
23617;SDS011;18207;32.078;34.818;2023-02-22T15:55:26;0.60;;;0.60;;
23617;SDS011;18207;32.078;34.818;2023-02-22T15:58:11;0.50;;;0.50;;
23617;SDS011;18207;32.078;34.818;2023-02-22T16:00:57;0.88;;;0.50;;
23617;SDS011;18207;32.078;34.818;2023-02-22T16:03:33;0.85;;;0.52;;